Main page

Gloucester, England

Gloucestershire Airport

latitude: 51-54N, longitude: 002-10W, elevation: 29 m

Current weather observation

The report was made 7 hours and 1 minutes ago, at 18:20 UTC
Calm wind
Temperature 11°C
Humidity 87%
Pressure 1022 hPa
Visibility 10 km or more
Few clouds at a height of 3000 ft

METAR: EGBJ 091820Z 00000KT 9999 FEW030 11/09 Q1022

Time: 02:21 (01:21 UTC)


The report was made 11 hours and 22 minutes ago, at 13:59 UTC
Forecast valid from 09 at 15 UTC to 09 at 19 UTC
Wind 4 kt from the East
Visibility 10 km or more
Scattered clouds at a height of 2500 ft

TAF: EGBJ 091359Z 0915/0919 10004KT 9999 SCT025


Weather observations and forecasts of more than 4000 airports (METAR and TAF reports).

The available stations are represented by yellow and red dots on the map.

Hover mouse over dot to see the name of the station.

Then click to see weather observations and forecasts.

To change the map : click on the green buttons with a black cross to zoom in, on the green button with a dash to zoom out, or on the green arrows for adjacent maps.